Time;durP1;ratioP1;P1;durP2;ratioP2;P2;SDS_P1;SDS_P2;PMS_P1;PMS_P2;Temp;Humidity;BMP_temperature;BMP_pressure;BME280_temperature;BME280_humidity;BME280_pressure;Samples;Min_cycle;Max_cycle;Signal;HPM_P1;HPM_P2
2022/05/02 00:02:18;;;;;;;1.00;1.00;;;;;;;5.95;86.35;102138.56;5071308;28;20623;-51
2022/05/02 00:04:43;;;;;;;1.65;1.15;;;;;;;6.07;86.29;102127.06;5071996;28;20182;-50
2022/05/02 00:07:09;;;;;;;1.17;0.93;;;;;;;6.21;85.81;102119.06;5071278;28;20514;-50
2022/05/02 00:09:34;;;;;;;1.08;0.85;;;;;;;6.36;85.61;102114.66;5071818;28;20506;-49
2022/05/02 00:12:00;;;;;;;1.25;1.00;;;;;;;6.06;85.18;102119.97;5070754;28;20236;-50
2022/05/02 00:14:25;;;;;;;1.60;1.00;;;;;;;6.13;86.26;102127.94;5053905;28;20606;-49
2022/05/02 00:16:50;;;;;;;1.60;0.88;;;;;;;6.22;85.96;102120.84;5071616;28;20230;-50
2022/05/02 00:19:16;;;;;;;0.80;0.80;;;;;;;6.29;86.32;102114.66;5071069;28;20190;-50
2022/05/02 00:21:41;;;;;;;0.80;0.80;;;;;;;6.26;85.59;102112.88;5071544;28;20163;-51
2022/05/02 00:24:08;;;;;;;2.17;0.63;;;;;;;6.22;86.00;102110.22;5071696;28;20521;-53
2022/05/02 00:26:34;;;;;;;1.23;0.88;;;;;;;6.03;85.93;102125.25;5071105;28;20206;-50
2022/05/02 00:29:00;;;;;;;1.45;0.90;;;;;;;5.90;86.44;102119.91;5053600;28;20277;-50
2022/05/02 00:31:25;;;;;;;1.20;0.90;;;;;;;5.97;86.96;102116.41;5071156;28;20187;-51
2022/05/02 00:33:50;;;;;;;3.55;1.08;;;;;;;5.89;87.54;102125.22;5071579;28;20178;-50
2022/05/02 00:36:16;;;;;;;1.02;0.90;;;;;;;5.98;87.56;102118.16;5071676;28;20514;-49
2022/05/02 00:38:42;;;;;;;1.25;1.00;;;;;;;6.08;87.48;102111.09;5070958;28;20232;-50
2022/05/02 00:41:08;;;;;;;3.53;1.38;;;;;;;6.12;87.59;102119.94;5071187;28;20242;-49
2022/05/02 00:43:33;;;;;;;1.27;1.10;;;;;;;5.96;86.96;102116.38;5070465;28;20175;-49
2022/05/02 00:45:59;;;;;;;1.50;1.00;;;;;;;5.92;87.39;102103.94;5070819;28;20601;-48
2022/05/02 00:48:25;;;;;;;0.80;0.80;;;;;;;6.09;87.49;102107.53;5053044;28;20202;-48
2022/05/02 00:50:51;;;;;;;1.33;1.00;;;;;;;5.80;87.21;102103.94;5070686;28;20203;-48
2022/05/02 00:53:22;;;;;;;1.08;1.00;;;;;;;5.92;87.60;102091.50;5070490;28;20175;-47
2022/05/02 00:55:48;;;;;;;1.17;1.08;;;;;;;5.95;87.53;102101.34;5052643;28;20187;-48
2022/05/02 00:58:15;;;;;;;1.02;0.95;;;;;;;5.94;87.05;102096.84;5070772;28;20167;-48
2022/05/02 01:00:41;;;;;;;1.30;0.90;;;;;;;5.96;86.86;102103.09;5070521;28;20498;-49
2022/05/02 01:03:09;;;;;;;0.82;0.80;;;;;;;5.76;87.01;102109.22;5068706;28;20221;-48
2022/05/02 01:08:26;;;;;;;1.10;1.00;;;;;;;5.77;88.10;102116.34;5070145;28;20171;-49
2022/05/02 01:10:53;;;;;;;1.15;0.90;;;;;;;5.88;88.12;102099.50;5069963;28;20215;-50
2022/05/02 01:13:37;;;;;;;0.60;0.60;;;;;;;5.97;87.75;102100.44;5064370;28;20190;-48
2022/05/02 01:16:11;;;;;;;0.90;0.90;;;;;;;6.14;87.27;102110.19;5069872;28;20632;-47
2022/05/02 01:18:37;;;;;;;1.13;0.90;;;;;;;5.97;86.91;102099.56;5052196;28;20181;-49
2022/05/02 01:21:10;;;;;;;1.13;0.88;;;;;;;5.80;88.00;102106.59;5067695;28;20517;-50
2022/05/02 01:23:36;;;;;;;1.48;1.20;;;;;;;5.88;88.10;102103.06;5068781;28;20183;-49
2022/05/02 01:26:01;;;;;;;1.67;0.90;;;;;;;5.74;87.91;102099.47;5069851;28;20582;-47
2022/05/02 01:28:28;;;;;;;0.80;0.75;;;;;;;5.58;88.35;102098.56;5051689;28;20182;-46
2022/05/02 01:30:55;;;;;;;0.90;0.82;;;;;;;5.67;89.18;102095.91;5069984;28;20617;-46
2022/05/02 01:33:20;;;;;;;1.20;0.80;;;;;;;5.87;88.68;102097.72;5069037;28;20178;-48
2022/05/02 01:35:45;;;;;;;1.17;1.00;;;;;;;5.70;87.94;102106.53;5069133;28;20175;-46
2022/05/02 01:38:12;;;;;;;0.80;0.80;;;;;;;5.65;88.45;102097.69;5069795;28;20182;-47
2022/05/02 01:40:38;;;;;;;0.77;0.77;;;;;;;5.72;88.53;102093.25;5070029;28;20194;-48
2022/05/02 01:43:04;;;;;;;0.95;0.90;;;;;;;5.91;87.95;102094.19;5069191;28;20547;-48
2022/05/02 01:45:29;;;;;;;0.80;0.70;;;;;;;5.76;87.50;102100.38;5070412;28;20185;-50
2022/05/02 01:47:54;;;;;;;0.98;0.90;;;;;;;5.76;87.16;102106.56;5070045;28;20187;-48
2022/05/02 01:50:20;;;;;;;0.82;0.82;;;;;;;5.84;87.21;102095.03;5068915;28;20660;-45
2022/05/02 01:52:45;;;;;;;0.77;0.77;;;;;;;5.95;86.68;102098.66;5051347;28;20179;-47
2022/05/02 01:55:10;;;;;;;0.70;0.70;;;;;;;5.58;86.90;102101.22;5068500;28;20232;-45
2022/05/02 01:57:36;;;;;;;3.58;1.02;;;;;;;5.66;87.35;102107.41;5069795;28;20571;-48
2022/05/02 02:00:03;;;;;;;0.73;0.73;;;;;;;5.65;87.92;102103.00;5069810;28;20194;-46
2022/05/02 02:02:40;;;;;;;1.50;0.90;;;;;;;5.69;88.05;102101.25;5068976;28;20596;-46
2022/05/02 02:07:50;;;;;;;1.25;1.15;;;;;;;5.54;88.05;102095.00;5069471;28;20216;-46
2022/05/02 02:10:15;;;;;;;1.67;1.02;;;;;;;5.60;87.98;102093.22;5069516;28;20277;-49
2022/05/02 02:12:41;;;;;;;1.15;0.90;;;;;;;5.60;88.47;102090.56;5069226;28;20192;-46
2022/05/02 02:15:07;;;;;;;1.23;0.95;;;;;;;5.68;88.70;102100.34;5069485;28;20604;-45
2022/05/02 02:17:32;;;;;;;1.02;0.90;;;;;;;5.63;88.63;102099.44;5069640;28;20253;-46
2022/05/02 02:19:58;;;;;;;1.63;1.10;;;;;;;5.49;88.69;102090.56;5069348;28;20710;-49
2022/05/02 02:22:24;;;;;;;1.85;1.00;;;;;;;5.63;89.01;102078.19;5069165;28;20178;-46
2022/05/02 02:24:50;;;;;;;0.77;0.77;;;;;;;5.70;88.39;102084.38;5067934;28;20171;-46
2022/05/02 02:27:15;;;;;;;2.25;1.10;;;;;;;5.64;88.25;102095.00;5069387;28;20206;-46
2022/05/02 02:29:41;;;;;;;0.93;0.90;;;;;;;5.68;88.50;102094.13;5069482;28;20551;-47
2022/05/02 02:32:07;;;;;;;0.90;0.90;;;;;;;5.75;88.25;102083.53;5068939;28;20177;-47
2022/05/02 02:34:32;;;;;;;1.75;1.10;;;;;;;5.48;87.92;102089.66;5069629;28;20692;-47
2022/05/02 02:36:58;;;;;;;1.50;1.30;;;;;;;5.19;89.36;102091.34;5069309;28;20622;-46
2022/05/02 02:39:23;;;;;;;2.55;1.02;;;;;;;5.22;90.27;102097.53;5068757;28;20186;-47
2022/05/02 02:41:49;;;;;;;3.65;1.17;;;;;;;5.31;90.95;102094.00;5051083;28;20186;-48
2022/05/02 02:44:14;;;;;;;0.98;0.93;;;;;;;5.32;91.31;102086.06;5072285;28;20189;-48
2022/05/02 02:46:40;;;;;;;1.73;1.10;;;;;;;5.42;91.10;102078.09;5073396;28;20199;-49
2022/05/02 02:49:05;;;;;;;0.90;0.80;;;;;;;5.58;90.72;102080.81;5072902;28;20584;-45
2022/05/02 02:51:30;;;;;;;1.20;1.20;;;;;;;5.67;90.38;102087.94;5073204;28;20158;-47
2022/05/02 02:53:56;;;;;;;1.05;1.05;;;;;;;5.66;90.52;102082.59;5072909;28;20167;-47
2022/05/02 02:56:22;;;;;;;1.80;1.40;;;;;;;5.69;90.11;102087.94;5055080;28;20174;-48
2022/05/02 02:58:47;;;;;;;1.35;1.25;;;;;;;5.63;90.31;102086.16;5073271;28;20213;-48
2022/05/02 03:01:13;;;;;;;1.60;1.50;;;;;;;5.63;90.42;102087.94;5072870;28;20613;-50
2022/05/02 03:03:39;;;;;;;4.88;1.27;;;;;;;5.62;90.58;102080.81;5072697;28;20605;-43
2022/05/02 03:06:05;;;;;;;3.47;1.30;;;;;;;5.60;90.79;102071.94;5072553;28;20183;-44
2022/05/02 03:08:36;;;;;;;1.33;1.10;;;;;;;5.65;91.52;102073.75;5072630;28;20719;-45
2022/05/02 03:11:03;;;;;;;1.55;1.40;;;;;;;5.66;91.21;102058.69;5073186;28;20181;-46
2022/05/02 03:13:29;;;;;;;4.00;1.27;;;;;;;5.61;91.47;102069.31;5070804;28;20175;-49
2022/05/02 03:15:55;;;;;;;1.52;1.42;;;;;;;5.35;91.48;102066.56;5051847;28;20526;-45
2022/05/02 03:18:20;;;;;;;1.60;1.50;;;;;;;5.46;92.11;102061.28;5071615;28;20182;-44
2022/05/02 03:20:45;;;;;;;1.88;1.30;;;;;;;5.41;92.15;102071.03;5054617;28;20256;-46
2022/05/02 03:23:11;;;;;;;1.50;1.40;;;;;;;5.41;92.56;102069.25;5070559;28;20251;-51
2022/05/02 03:25:36;;;;;;;2.22;1.30;;;;;;;5.58;92.52;102070.19;5072641;28;20287;-45
2022/05/02 03:28:02;;;;;;;2.80;1.30;;;;;;;5.50;92.49;102063.09;5072662;28;20210;-46
2022/05/02 03:30:27;;;;;;;1.52;1.42;;;;;;;5.56;93.04;102056.00;5072531;28;20209;-47
2022/05/02 03:32:53;;;;;;;2.28;1.30;;;;;;;5.74;92.95;102063.13;5072074;28;20167;-46
2022/05/02 03:35:18;;;;;;;1.88;1.40;;;;;;;5.83;93.12;102054.28;5073016;28;20179;-49
2022/05/02 03:37:44;;;;;;;1.55;1.30;;;;;;;5.54;92.69;102064.88;5072179;28;20245;-48
2022/05/02 03:40:09;;;;;;;1.80;1.20;;;;;;;5.46;93.54;102061.28;5071939;28;20210;-47
2022/05/02 03:42:37;;;;;;;2.47;1.30;;;;;;;5.60;94.35;102067.53;5071682;28;20171;-46
2022/05/02 03:45:03;;;;;;;3.63;1.60;;;;;;;5.62;94.11;102057.81;5071748;28;20178;-47
2022/05/02 03:47:29;;;;;;;1.90;1.45;;;;;;;5.67;94.36;102055.16;5072376;28;20201;-46
2022/05/02 03:49:54;;;;;;;1.63;1.25;;;;;;;5.75;94.00;102064.91;5071830;28;20206;-48
2022/05/02 03:52:19;;;;;;;1.25;1.17;;;;;;;5.85;93.68;102055.16;5070868;28;20166;-46
2022/05/02 03:54:45;;;;;;;1.23;1.20;;;;;;;5.72;93.28;102058.69;5071311;28;20245;-47
2022/05/02 03:57:10;;;;;;;1.33;1.20;;;;;;;5.69;93.15;102062.25;5071456;28;20174;-49
2022/05/02 03:59:35;;;;;;;2.65;1.67;;;;;;;5.71;93.32;102062.25;5071779;28;20195;-47
2022/05/02 04:02:01;;;;;;;3.45;1.50;;;;;;;5.74;93.38;102060.47;5071036;28;20179;-46
2022/05/02 04:04:26;;;;;;;1.50;1.40;;;;;;;5.76;93.65;102050.72;5071190;28;20194;-48
2022/05/02 04:06:52;;;;;;;1.30;1.20;;;;;;;5.88;93.25;102054.28;5071254;28;20183;-47
2022/05/02 04:09:17;;;;;;;2.55;1.35;;;;;;;5.90;93.26;102056.06;5053201;28;20198;-46
2022/05/02 04:11:43;;;;;;;1.33;1.17;;;;;;;5.97;92.80;102062.31;5071612;28;20171;-47
2022/05/02 04:14:08;;;;;;;2.67;1.55;;;;;;;5.73;92.45;102064.03;5070840;28;20166;-45
2022/05/02 04:16:34;;;;;;;2.30;1.35;;;;;;;5.88;93.24;102062.25;5053249;28;20227;-47
2022/05/02 04:18:59;;;;;;;1.13;1.13;;;;;;;5.93;92.70;102064.03;5071004;28;20244;-47
2022/05/02 04:21:24;;;;;;;1.48;1.38;;;;;;;5.94;92.43;102060.50;5070905;28;20166;-46
2022/05/02 04:23:50;;;;;;;1.50;1.40;;;;;;;5.82;92.81;102064.94;5070791;28;20657;-45
2022/05/02 04:26:15;;;;;;;1.50;1.33;;;;;;;5.82;93.11;102065.81;5071308;28;20202;-48
2022/05/02 04:28:41;;;;;;;1.42;1.30;;;;;;;5.93;93.34;102063.16;5070879;28;20178;-46
2022/05/02 04:31:06;;;;;;;1.50;1.40;;;;;;;6.00;92.92;102072.06;5071060;28;20162;-45
2022/05/02 04:33:31;;;;;;;1.60;1.50;;;;;;;5.95;92.61;102069.41;5070430;28;20617;-47
2022/05/02 04:35:57;;;;;;;1.50;1.40;;;;;;;6.02;92.83;102064.97;5070592;28;20178;-48
2022/05/02 04:38:22;;;;;;;2.30;1.30;;;;;;;5.86;92.37;102075.56;5071159;28;20174;-46
2022/05/02 04:40:48;;;;;;;2.17;1.63;;;;;;;6.01;92.40;102068.50;5070763;28;20199;-48
2022/05/02 04:43:14;;;;;;;2.95;1.92;;;;;;;6.05;92.33;102075.59;5070698;28;20179;-51
2022/05/02 04:45:40;;;;;;;3.08;1.48;;;;;;;5.93;92.12;102077.34;5071698;28;20574;-45
2022/05/02 04:48:06;;;;;;;5.30;1.77;;;;;;;5.82;92.82;102076.44;5070868;28;20571;-50
2022/05/02 04:50:31;;;;;;;2.00;1.80;;;;;;;5.91;93.06;102071.13;5070886;28;20198;-46
2022/05/02 04:52:57;;;;;;;1.60;1.40;;;;;;;5.94;93.02;102073.81;5070277;28;20554;-46
2022/05/02 04:55:22;;;;;;;1.50;1.40;;;;;;;6.00;92.72;102080.94;5070788;28;20167;-49
2022/05/02 04:57:48;;;;;;;2.38;1.77;;;;;;;6.04;92.19;102082.72;5071192;28;20183;-46
2022/05/02 05:00:16;;;;;;;4.82;2.10;;;;;;;5.96;92.32;102081.81;5070508;28;20225;-45
2022/05/02 05:02:42;;;;;;;5.75;1.67;;;;;;;5.95;92.98;102080.94;5070350;28;20629;-46
2022/05/02 05:05:08;;;;;;;3.05;1.80;;;;;;;6.00;93.22;102078.28;5069900;28;20155;-45
2022/05/02 05:07:37;;;;;;;4.22;2.00;;;;;;;6.00;93.38;102080.94;5068956;28;20757;-44
2022/05/02 05:10:03;;;;;;;2.47;1.70;;;;;;;6.34;93.70;102071.19;5052634;28;20285;-50
2022/05/02 05:12:53;;;;;;;2.95;2.20;;;;;;;6.48;92.75;102081.81;5070057;28;20666;-50
2022/05/02 05:18:56;;;;;;;3.38;1.77;;;;;;;7.09;92.23;102075.44;5070175;28;20675;-46
2022/05/02 05:21:59;;;;;;;2.58;1.95;;;;;;;7.37;91.02;102070.00;5070633;28;20528;-46
2022/05/02 05:25:12;;;;;;;3.08;1.92;;;;;;;7.64;89.83;102056.50;5070236;28;20656;-47
2022/05/02 05:27:48;;;;;;;3.78;2.20;;;;;;;7.94;89.09;102059.84;5061342;28;20301;-48
2022/05/02 05:30:19;;;;;;;7.18;2.72;;;;;;;7.97;88.38;102067.84;5069512;28;20727;-48
2022/05/02 05:32:48;;;;;;;4.88;2.63;;;;;;;8.22;87.77;102056.94;5069853;28;20179;-47
2022/05/02 05:35:27;;;;;;;4.68;3.08;;;;;;;8.41;86.10;102058.59;5068571;28;20258;-51
2022/05/02 05:37:59;;;;;;;6.55;3.25;;;;;;;8.72;85.45;102052.94;5070222;28;20212;-47
2022/05/02 05:40:39;;;;;;;2.80;2.60;;;;;;;9.08;83.77;102054.31;5052268;28;20275;-48
2022/05/02 05:43:31;;;;;;;4.18;2.88;;;;;;;9.38;82.57;102048.56;5069389;28;20167;-47
2022/05/02 05:46:24;;;;;;;6.93;2.70;;;;;;;9.17;81.03;102057.78;5070149;28;20585;-46
2022/05/02 05:49:17;;;;;;;3.13;2.80;;;;;;;9.45;79.97;102051.16;5069219;28;20707;-49
2022/05/02 05:52:00;;;;;;;4.35;3.15;;;;;;;9.80;79.66;102049.75;5070283;28;20167;-46
2022/05/02 05:54:39;;;;;;;4.03;3.13;;;;;;;9.80;78.40;102049.75;5069983;28;20595;-45
2022/05/02 05:57:22;;;;;;;4.78;2.90;;;;;;;9.89;78.62;102046.03;5068635;28;20644;-48
2022/05/02 06:00:03;;;;;;;6.63;2.92;;;;;;;10.02;77.76;102041.38;5069500;28;20419;-47
2022/05/02 06:03:01;;;;;;;2.70;2.50;;;;;;;10.56;76.64;102041.34;5069252;28;20179;-51
2022/05/02 06:05:28;;;;;;;4.50;2.97;;;;;;;10.69;75.81;102041.97;5069421;28;20528;-48
2022/05/02 06:07:55;;;;;;;4.20;2.90;;;;;;;10.77;75.97;102041.84;5069708;28;20210;-45
2022/05/02 06:10:23;;;;;;;5.47;2.90;;;;;;;11.16;75.46;102039.28;5069759;28;20198;-48
2022/05/02 06:12:50;;;;;;;5.03;3.17;;;;;;;11.37;74.62;102038.81;5069178;28;20163;-50
2022/05/02 06:20:45;;;;;;;3.47;3.10;;;;;;;10.61;75.93;102039.47;5069208;28;20208;-46
2022/05/02 06:23:16;;;;;;;4.03;2.80;;;;;;;10.67;78.61;102046.47;5050667;28;20232;-47
2022/05/02 06:25:45;;;;;;;3.90;3.17;;;;;;;10.54;79.39;102048.53;5069787;28;20185;-51
2022/05/02 06:28:11;;;;;;;4.43;2.95;;;;;;;10.12;80.46;102042.97;5069533;28;20289;-46
2022/05/02 06:30:39;;;;;;;4.93;3.55;;;;;;;10.48;81.07;102046.84;5050969;28;20294;-44
2022/05/02 06:33:12;;;;;;;3.97;3.10;;;;;;;11.38;79.65;102047.75;5068937;28;20190;-46
2022/05/02 06:36:16;;;;;;;3.88;3.10;;;;;;;11.59;76.71;102041.88;5068464;28;20193;-48
2022/05/02 06:39:03;;;;;;;6.07;3.63;;;;;;;12.27;76.67;102034.91;5030750;28;20237;-47
2022/05/02 06:41:50;;;;;;;4.22;3.28;;;;;;;12.48;76.00;102044.19;5030960;28;20612;-44
2022/05/02 06:44:19;;;;;;;4.15;3.03;;;;;;;12.62;74.64;102027.72;5063832;28;20166;-47
2022/05/02 06:46:57;;;;;;;7.53;3.50;;;;;;;12.68;74.87;102035.56;5048872;28;20410;-45
2022/05/02 06:49:25;;;;;;;3.95;3.05;;;;;;;12.24;75.26;102041.22;5061432;28;20195;-46
2022/05/02 06:51:55;;;;;;;4.78;3.20;;;;;;;12.84;75.70;102038.75;5069093;28;20656;-47
2022/05/02 06:54:37;;;;;;;4.75;4.13;;;;;;;13.45;73.80;102036.97;5069017;28;20167;-45
2022/05/02 06:57:10;;;;;;;5.82;4.20;;;;;;;13.44;73.09;102029.78;5069466;28;20194;-51
2022/05/02 06:59:47;;;;;;;5.47;4.07;;;;;;;13.29;73.69;102041.91;5068656;28;20248;-45
2022/05/02 07:02:13;;;;;;;5.82;3.88;;;;;;;12.25;75.75;102034.06;5051141;28;20186;-48
2022/05/02 07:04:52;;;;;;;3.45;3.15;;;;;;;11.27;80.99;102053.34;5069094;28;20191;-47
2022/05/02 07:07:48;;;;;;;3.97;3.15;;;;;;;11.02;82.72;102045.81;5069039;28;20209;-47
2022/05/02 07:10:22;;;;;;;6.45;3.35;;;;;;;10.86;84.08;102047.91;5069183;28;20207;-46
2022/05/02 07:13:00;;;;;;;4.55;3.38;;;;;;;11.04;84.04;102043.97;5069046;28;20186;-47
2022/05/02 07:15:49;;;;;;;5.22;3.75;;;;;;;11.17;84.37;102046.38;5069077;28;20167;-48
2022/05/02 07:18:43;;;;;;;7.07;3.00;;;;;;;11.39;83.41;102049.50;5068629;28;20228;-46
2022/05/02 07:21:31;;;;;;;5.63;3.55;;;;;;;11.22;82.65;102048.06;5069307;28;20193;-47
2022/05/02 07:24:17;;;;;;;4.60;3.05;;;;;;;11.31;82.97;102041.63;5068382;28;20171;-48
2022/05/02 07:26:53;;;;;;;4.15;2.75;;;;;;;11.45;82.62;102049.34;5069265;28;20260;-48
2022/05/02 07:29:22;;;;;;;6.47;3.45;;;;;;;11.53;81.67;102042.03;5070119;28;20251;-50
2022/05/02 07:31:48;;;;;;;4.88;3.35;;;;;;;11.40;81.79;102044.09;5072406;28;20582;-50
2022/05/02 07:34:15;;;;;;;2.92;2.72;;;;;;;11.32;80.83;102041.56;5071944;28;20652;-49
2022/05/02 07:36:42;;;;;;;4.93;2.97;;;;;;;11.48;80.51;102038.56;5072157;28;20175;-46
2022/05/02 07:39:13;;;;;;;5.15;2.95;;;;;;;11.63;80.20;102027.50;5072159;28;20629;-47
2022/05/02 07:41:42;;;;;;;2.80;2.50;;;;;;;11.68;78.76;102030.06;5071909;28;20509;-46
2022/05/02 07:44:12;;;;;;;3.45;2.60;;;;;;;11.48;77.75;102030.53;5071740;28;20171;-49
2022/05/02 07:46:39;;;;;;;6.60;2.70;;;;;;;11.55;79.00;102040.19;5072309;28;20191;-48
2022/05/02 07:49:07;;;;;;;3.38;2.90;;;;;;;12.02;76.92;102029.25;5072023;28;20434;-49
2022/05/02 07:51:37;;;;;;;4.53;2.28;;;;;;;12.40;74.51;102027.38;5071940;28;20163;-48
2022/05/02 07:54:04;;;;;;;2.53;2.22;;;;;;;13.07;71.82;102027.31;5072036;28;20742;-47
2022/05/02 07:56:32;;;;;;;2.67;2.20;;;;;;;12.82;71.71;102025.34;5072377;28;20195;-48
2022/05/02 07:58:59;;;;;;;6.13;2.47;;;;;;;13.10;71.24;102025.41;5072093;28;20202;-48
2022/05/02 08:01:25;;;;;;;3.25;2.63;;;;;;;12.56;72.63;102029.63;5072519;28;20179;-49
2022/05/02 08:03:52;;;;;;;8.88;4.20;;;;;;;12.11;73.85;102023.66;5072093;28;20186;-48
2022/05/02 08:06:49;;;;;;;4.15;2.75;;;;;;;12.53;72.45;102023.47;5053294;28;20561;-47
2022/05/02 08:09:15;;;;;;;5.90;2.50;;;;;;;12.20;72.59;102022.53;5054002;28;20263;-49
2022/05/02 08:12:02;;;;;;;3.03;2.53;;;;;;;12.69;70.39;102019.41;5072155;28;20641;-51
2022/05/02 08:14:47;;;;;;;2.75;2.03;;;;;;;12.68;69.00;102008.69;5071837;28;20167;-47
2022/05/02 08:17:48;;;;;;;12.85;2.92;;;;;;;13.43;67.27;102013.72;5072015;28;20171;-48
2022/05/02 08:20:24;;;;;;;4.53;2.45;;;;;;;13.42;67.21;102015.50;5072170;28;20201;-48
2022/05/02 08:29:16;;;;;;;4.65;2.38;;;;;;;13.23;68.11;102007.09;5070026;28;20243;-46
2022/05/02 08:32:07;;;;;;;3.10;2.60;;;;;;;13.18;68.54;102015.31;5061176;28;20585;-50
2022/05/02 08:34:38;;;;;;;3.60;2.60;;;;;;;12.35;70.04;102014.97;5070471;28;20177;-47
2022/05/02 08:37:18;;;;;;;3.35;2.72;;;;;;;12.79;71.55;102017.38;5071099;28;20639;-48
2022/05/02 08:39:46;;;;;;;5.32;3.00;;;;;;;12.61;71.74;102017.84;5070838;28;20203;-49
2022/05/02 08:42:24;;;;;;;3.35;2.70;;;;;;;12.54;71.58;102017.16;5070688;28;20170;-47
2022/05/02 08:45:05;;;;;;;2.72;2.53;;;;;;;12.32;70.66;102012.34;5070761;28;20167;-49
2022/05/02 08:47:59;;;;;;;3.33;3.00;;;;;;;11.78;75.50;102019.97;5069973;28;20718;-47
2022/05/02 08:51:08;;;;;;;8.88;3.40;;;;;;;12.22;77.18;102024.25;5051196;28;20255;-50
2022/05/02 08:54:10;;;;;;;7.10;3.33;;;;;;;12.55;77.28;102016.22;5051057;28;20599;-49
2022/05/02 08:57:09;;;;;;;4.88;3.75;;;;;;;12.83;74.61;102021.69;5051004;28;20648;-46
2022/05/02 08:59:34;;;;;;;3.45;2.75;;;;;;;12.45;73.58;102020.09;5050950;28;20744;-49
2022/05/02 09:02:05;;;;;;;4.18;3.25;;;;;;;12.52;73.49;102017.19;5050780;28;20316;-48
2022/05/02 09:05:02;;;;;;;7.20;3.10;;;;;;;12.63;71.55;102013.31;5050729;28;20187;-47
2022/05/02 09:07:52;;;;;;;3.63;2.85;;;;;;;12.93;71.50;102000.81;5050928;28;20681;-47
2022/05/02 09:10:25;;;;;;;6.70;2.90;;;;;;;12.73;73.45;102002.28;5050530;28;20257;-46
2022/05/02 09:13:29;;;;;;;2.40;2.10;;;;;;;12.20;74.96;102006.41;5050442;28;20183;-43
2022/05/02 09:16:13;;;;;;;3.45;2.30;;;;;;;11.67;77.41;102013.03;5003126;28;20669;-43
2022/05/02 09:19:23;;;;;;;3.80;2.70;;;;;;;11.83;77.02;102010.91;5050618;28;20181;-47
2022/05/02 09:22:02;;;;;;;3.15;2.72;;;;;;;11.60;76.39;102006.06;5051027;28;20194;-46
2022/05/02 09:25:18;;;;;;;7.32;3.03;;;;;;;12.20;75.16;101990.28;5050111;28;20206;-46
2022/05/02 09:27:55;;;;;;;3.60;2.70;;;;;;;12.10;76.93;102005.78;5026945;28;20219;-45
2022/05/02 09:30:42;;;;;;;2.47;2.15;;;;;;;12.00;76.53;101988.13;5050225;28;20222;-47
2022/05/02 09:33:42;;;;;;;2.63;2.42;;;;;;;12.03;73.94;101986.25;5050351;28;20225;-45
2022/05/02 09:36:25;;;;;;;2.72;1.90;;;;;;;12.22;73.13;101986.63;5050225;28;20179;-47
2022/05/02 09:39:01;;;;;;;2.67;2.47;;;;;;;12.04;73.65;101985.31;5050882;28;20195;-45
2022/05/02 09:41:46;;;;;;;3.13;2.50;;;;;;;12.32;71.68;101982.78;5050331;28;20626;-45
2022/05/02 09:50:53;;;;;;;4.00;2.10;;;;;;;11.97;68.84;101969.41;5049804;28;20252;-48
2022/05/02 09:53:49;;;;;;;2.83;1.77;;;;;;;11.57;70.34;101981.09;5031397;28;20182;-47
2022/05/02 09:56:38;;;;;;;2.53;1.95;;;;;;;11.37;71.31;101977.09;5064954;28;20194;-48
2022/05/02 09:59:23;;;;;;;4.93;1.88;;;;;;;11.34;71.40;101972.66;5054230;28;20218;-47
2022/05/02 10:01:53;;;;;;;2.25;1.70;;;;;;;11.34;71.27;101975.34;5069886;28;20311;-47
2022/05/02 10:04:31;;;;;;;3.90;2.20;;;;;;;11.35;70.24;101957.47;5069540;28;20309;-46
2022/05/02 10:07:08;;;;;;;3.45;2.50;;;;;;;12.09;68.99;101967.28;5069905;28;20611;-46
2022/05/02 10:10:04;;;;;;;2.78;2.03;;;;;;;12.03;68.93;101956.69;5069439;28;20209;-46
2022/05/02 10:12:38;;;;;;;1.83;1.70;;;;;;;12.05;68.45;101960.22;5069419;28;20186;-48
2022/05/02 10:15:20;;;;;;;2.42;1.67;;;;;;;12.34;68.02;101954.06;5069691;28;20167;-47
2022/05/02 10:18:11;;;;;;;2.45;2.03;;;;;;;12.16;68.39;101955.44;5069729;28;20174;-46
2022/05/02 10:21:11;;;;;;;3.10;1.60;;;;;;;12.52;66.63;101959.84;5069459;28;20715;-49
2022/05/02 10:24:03;;;;;;;2.95;2.00;;;;;;;12.38;64.52;101944.13;5069147;28;20159;-46
2022/05/02 10:26:40;;;;;;;3.17;1.85;;;;;;;12.76;65.39;101951.06;5069180;28;20244;-47
2022/05/02 10:29:42;;;;;;;2.88;2.08;;;;;;;12.72;64.93;101944.00;5069539;28;20182;-47
2022/05/02 10:32:45;;;;;;;1.60;1.50;;;;;;;12.72;64.42;101938.63;5069732;28;20174;-47
2022/05/02 10:35:12;;;;;;;2.78;1.65;;;;;;;13.16;63.67;101928.38;5069739;28;20251;-47
2022/05/02 10:37:40;;;;;;;4.35;2.00;;;;;;;13.30;61.88;101913.63;5051912;28;20545;-48
2022/05/02 10:40:12;;;;;;;5.10;1.90;;;;;;;13.17;63.63;101929.22;5069570;28;20740;-49
2022/05/02 10:42:45;;;;;;;2.65;1.80;;;;;;;13.25;62.58;101916.44;5069334;28;20313;-48
2022/05/02 10:45:11;;;;;;;2.35;1.83;;;;;;;13.32;62.64;101923.41;5051798;28;20217;-48
2022/05/02 10:47:52;;;;;;;2.70;2.20;;;;;;;13.27;62.34;101910.97;5069447;28;20287;-48
2022/05/02 10:50:19;;;;;;;3.55;2.20;;;;;;;13.30;63.33;101906.41;5049539;28;20334;-48
2022/05/02 10:52:48;;;;;;;5.05;2.28;;;;;;;13.28;63.13;101916.34;5048789;28;20171;-47
2022/05/02 10:55:25;;;;;;;3.13;2.17;;;;;;;13.18;62.94;101914.84;5049208;28;20168;-47
2022/05/02 10:57:59;;;;;;;3.83;2.30;;;;;;;13.22;62.03;101896.78;5049338;28;20171;-49
2022/05/02 11:00:25;;;;;;;2.70;2.33;;;;;;;13.45;61.10;101901.47;5049432;28;20197;-48
2022/05/02 11:03:00;;;;;;;3.95;2.65;;;;;;;13.42;59.78;101898.88;5048879;28;20183;-47
2022/05/02 11:05:31;;;;;;;3.97;2.80;;;;;;;13.62;59.39;101888.28;5052820;28;20174;-46
2022/05/02 11:08:37;;;;;;;3.33;2.65;;;;;;;12.75;63.32;101900.03;5052885;28;20203;-47
2022/05/02 11:11:05;;;;;;;2.50;2.30;;;;;;;12.69;62.70;101898.41;5053301;28;20595;-48
2022/05/02 11:13:31;;;;;;;3.53;2.42;;;;;;;12.88;62.35;101903.22;5052585;28;20181;-50
2022/05/02 11:16:18;;;;;;;3.90;2.33;;;;;;;12.66;62.67;101900.28;5052749;28;20250;-48
2022/05/02 11:22:03;;;;;;;2.97;2.50;;;;;;;13.00;61.27;101886.72;5053522;28;20160;-49
2022/05/02 11:24:59;;;;;;;6.25;2.85;;;;;;;12.73;62.58;101886.63;5052353;28;20175;-48
2022/05/02 11:27:39;;;;;;;2.40;2.20;;;;;;;12.41;63.17;101892.09;5052867;28;20202;-49
2022/05/02 11:30:12;;;;;;;5.25;2.90;;;;;;;12.29;64.37;101890.66;5052388;28;20195;-47
2022/05/02 11:33:00;;;;;;;3.40;2.75;;;;;;;12.18;63.30;101882.88;5052066;28;20537;-48
2022/05/02 11:35:31;;;;;;;3.85;2.55;;;;;;;12.50;64.02;101881.06;5052483;28;20180;-49
2022/05/02 11:38:21;;;;;;;3.38;2.80;;;;;;;12.78;63.97;101883.81;5052824;28;20238;-49
2022/05/02 11:40:59;;;;;;;3.03;2.60;;;;;;;12.51;63.29;101877.47;5052154;28;20269;-47
2022/05/02 11:43:30;;;;;;;5.40;2.65;;;;;;;13.13;61.42;101869.25;5052141;28;20178;-46
2022/05/02 11:46:15;;;;;;;3.58;2.60;;;;;;;13.62;60.88;101869.44;5052371;28;20218;-46
2022/05/02 11:48:52;;;;;;;3.10;2.83;;;;;;;13.66;57.54;101851.38;5059384;28;20171;-49
2022/05/02 11:51:44;;;;;;;3.50;2.88;;;;;;;13.29;60.75;101858.00;5072149;28;20179;-46
2022/05/02 11:54:28;;;;;;;5.63;2.28;;;;;;;13.35;59.64;101860.50;5071970;28;20163;-47
2022/05/02 11:57:14;;;;;;;5.75;2.53;;;;;;;13.45;59.22;101845.81;5072137;28;20185;-49
2022/05/02 12:00:00;;;;;;;3.97;2.30;;;;;;;13.15;59.86;101859.31;5071879;28;20187;-49
2022/05/02 12:02:54;;;;;;;3.00;2.28;;;;;;;12.68;61.62;101863.50;5072237;28;20196;-47
2022/05/02 12:05:23;;;;;;;3.97;2.70;;;;;;;12.66;60.60;101857.28;5064736;28;20202;-49
2022/05/02 12:07:54;;;;;;;4.00;2.30;;;;;;;13.21;58.91;101844.78;5070556;28;20206;-48
2022/05/02 12:10:21;;;;;;;5.10;3.10;;;;;;;13.08;59.02;101847.00;5071745;28;20289;-48
2022/05/02 12:12:51;;;;;;;4.50;2.28;;;;;;;13.12;59.31;101845.97;5072040;28;20514;-48
2022/05/02 12:15:18;;;;;;;4.65;2.50;;;;;;;12.96;59.47;101834.81;5071881;28;20163;-50
2022/05/02 12:17:52;;;;;;;2.60;2.30;;;;;;;12.85;61.25;101862.97;5072405;28;20166;-51
2022/05/02 12:20:39;;;;;;;4.03;2.72;;;;;;;12.72;62.15;101855.28;5071596;28;20194;-50
2022/05/02 12:23:18;;;;;;;3.17;2.92;;;;;;;12.76;62.10;101846.19;5071593;28;20235;-52
2022/05/02 12:25:52;;;;;;;4.88;2.60;;;;;;;12.65;60.17;101826.81;5071527;28;20182;-49
2022/05/02 12:28:19;;;;;;;4.28;2.70;;;;;;;12.95;59.33;101826.81;5071523;28;20186;-50
2022/05/02 12:30:52;;;;;;;4.78;2.83;;;;;;;13.27;59.47;101827.53;5071336;28;20478;-50